Beeston, United Kingdom
Current Conditions -  °F | °C
As of 7:50 AM on Friday 19 Dec 2014 (Local Time) from EGNX Reporting Station
Clear Clear  
Wind Chill: 34°   Ceiling: Unl
Heat Index: 43°   Visibility: 6mi
Dew Point: 36°   Wind: 21mph
Humidity: 76%   Direction: 250°WSW
Pressure: 29.8"   Gusts: NA
Location:  52.93°N, 1.21°W
Report Text: EGNX 190750Z 25018KT CAVOK 06/02 Q1009
Loading
Personal Weather Stations






























Interactive Weather Map New forecast layout! Learn more

10-Day Weather Forecast

Advertisements
Track Severe Weather on mobile